Prentiss, North Carolina
Current Conditions -  °F | °C
As of 11:35 AM on Tuesday 27 Jan 2015 (Local Time) from KRHP Reporting Station
Scattered Clouds Scattered Clouds  
Wind Chill: 25°   Ceiling: Unl
Heat Index: 34°   Visibility: 10mi
Dew Point: 26°   Wind: 12mph
Humidity: 74%   Direction: 30°NNE
Pressure: 29.93"   Gusts: 20mph
Location:  35.1737°N, 83.4215°W
Report Text: KRHP 271635Z AUTO 03010G17KT 360V060 10SM SCT024 SCT030 01/M03 A2993 RMK AO2 T00091032
Loading
Personal Weather Stations






























Interactive Weather Map New forecast layout! Learn more

10-Day Weather Forecast

Advertisements
Track Severe Weather on mobile